sensor_id;sensor_type;location;lat;lon;timestamp;temperature;humidity
27747;DHT22;15138;51.012;4.692;2022-12-11T00:02:00;2.70;99.90
27747;DHT22;15138;51.012;4.692;2022-12-11T00:04:28;2.70;99.90
27747;DHT22;15138;51.012;4.692;2022-12-11T00:06:56;2.60;99.90
27747;DHT22;15138;51.012;4.692;2022-12-11T00:09:24;2.60;99.90
27747;DHT22;15138;51.012;4.692;2022-12-11T00:11:53;2.70;99.90
27747;DHT22;15138;51.012;4.692;2022-12-11T00:14:21;2.80;99.90
27747;DHT22;15138;51.012;4.692;2022-12-11T00:16:49;2.70;99.90
27747;DHT22;15138;51.012;4.692;2022-12-11T00:19:17;2.70;99.90
27747;DHT22;15138;51.012;4.692;2022-12-11T00:21:45;2.70;99.90
27747;DHT22;15138;51.012;4.692;2022-12-11T00:24:13;2.60;99.90
27747;DHT22;15138;51.012;4.692;2022-12-11T00:26:41;2.60;99.90
27747;DHT22;15138;51.012;4.692;2022-12-11T00:29:10;2.70;99.90
27747;DHT22;15138;51.012;4.692;2022-12-11T00:31:40;2.70;99.90
27747;DHT22;15138;51.012;4.692;2022-12-11T00:34:08;2.70;99.90
27747;DHT22;15138;51.012;4.692;2022-12-11T00:36:37;2.60;99.90
27747;DHT22;15138;51.012;4.692;2022-12-11T00:39:05;2.60;99.90
27747;DHT22;15138;51.012;4.692;2022-12-11T00:41:33;2.80;99.90
27747;DHT22;15138;51.012;4.692;2022-12-11T00:44:01;2.70;99.90
27747;DHT22;15138;51.012;4.692;2022-12-11T00:46:30;2.70;99.90
27747;DHT22;15138;51.012;4.692;2022-12-11T00:48:58;2.70;99.90
27747;DHT22;15138;51.012;4.692;2022-12-11T00:51:26;2.70;99.90
27747;DHT22;15138;51.012;4.692;2022-12-11T00:53:54;2.70;99.90
27747;DHT22;15138;51.012;4.692;2022-12-11T00:56:22;2.70;99.90
27747;DHT22;15138;51.012;4.692;2022-12-11T00:58:50;2.60;99.90
27747;DHT22;15138;51.012;4.692;2022-12-11T01:01:19;2.70;99.90
27747;DHT22;15138;51.012;4.692;2022-12-11T01:03:49;2.70;99.90
27747;DHT22;15138;51.012;4.692;2022-12-11T01:06:18;2.70;99.90
27747;DHT22;15138;51.012;4.692;2022-12-11T01:08:46;2.70;99.90
27747;DHT22;15138;51.012;4.692;2022-12-11T01:11:34;2.70;99.90
27747;DHT22;15138;51.012;4.692;2022-12-11T01:14:01;2.90;99.90
27747;DHT22;15138;51.012;4.692;2022-12-11T01:16:29;2.70;99.80
27747;DHT22;15138;51.012;4.692;2022-12-11T01:18:59;2.70;99.90
27747;DHT22;15138;51.012;4.692;2022-12-11T01:21:27;2.70;99.90
27747;DHT22;15138;51.012;4.692;2022-12-11T01:23:55;2.70;99.90
27747;DHT22;15138;51.012;4.692;2022-12-11T01:26:22;2.70;99.90
27747;DHT22;15138;51.012;4.692;2022-12-11T01:28:50;2.70;99.90
27747;DHT22;15138;51.012;4.692;2022-12-11T01:31:19;2.70;98.10
27747;DHT22;15138;51.012;4.692;2022-12-11T01:33:47;2.70;99.90
27747;DHT22;15138;51.012;4.692;2022-12-11T01:36:17;2.70;99.90
27747;DHT22;15138;51.012;4.692;2022-12-11T01:38:45;2.80;99.90
27747;DHT22;15138;51.012;4.692;2022-12-11T01:41:14;2.70;99.90
27747;DHT22;15138;51.012;4.692;2022-12-11T01:43:58;2.70;99.90
27747;DHT22;15138;51.012;4.692;2022-12-11T01:46:27;2.70;99.90
27747;DHT22;15138;51.012;4.692;2022-12-11T01:48:55;2.70;99.90
27747;DHT22;15138;51.012;4.692;2022-12-11T01:51:24;2.80;99.90
27747;DHT22;15138;51.012;4.692;2022-12-11T01:53:53;2.70;97.30
27747;DHT22;15138;51.012;4.692;2022-12-11T01:56:22;2.70;99.90
27747;DHT22;15138;51.012;4.692;2022-12-11T01:58:51;2.70;99.90
27747;DHT22;15138;51.012;4.692;2022-12-11T02:01:21;2.70;99.90
27747;DHT22;15138;51.012;4.692;2022-12-11T02:03:52;2.80;99.90
27747;DHT22;15138;51.012;4.692;2022-12-11T02:06:29;2.70;96.80
27747;DHT22;15138;51.012;4.692;2022-12-11T02:08:57;2.70;99.90
27747;DHT22;15138;51.012;4.692;2022-12-11T02:11:26;2.70;99.90
27747;DHT22;15138;51.012;4.692;2022-12-11T02:13:58;3.00;99.90
27747;DHT22;15138;51.012;4.692;2022-12-11T02:16:31;2.80;99.90
27747;DHT22;15138;51.012;4.692;2022-12-11T02:19:02;2.80;99.90
27747;DHT22;15138;51.012;4.692;2022-12-11T02:21:36;2.80;99.90
27747;DHT22;15138;51.012;4.692;2022-12-11T02:24:10;2.80;99.90
27747;DHT22;15138;51.012;4.692;2022-12-11T02:26:48;2.90;99.90
27747;DHT22;15138;51.012;4.692;2022-12-11T02:29:24;2.80;99.90
27747;DHT22;15138;51.012;4.692;2022-12-11T02:31:54;2.80;99.90
27747;DHT22;15138;51.012;4.692;2022-12-11T02:34:25;2.90;99.90
27747;DHT22;15138;51.012;4.692;2022-12-11T02:36:56;2.90;99.90
27747;DHT22;15138;51.012;4.692;2022-12-11T02:39:25;3.00;99.90
27747;DHT22;15138;51.012;4.692;2022-12-11T02:41:54;2.80;99.90
27747;DHT22;15138;51.012;4.692;2022-12-11T02:44:24;2.70;99.90
27747;DHT22;15138;51.012;4.692;2022-12-11T02:46:53;2.80;99.90
27747;DHT22;15138;51.012;4.692;2022-12-11T02:49:22;2.80;99.90
27747;DHT22;15138;51.012;4.692;2022-12-11T02:51:50;2.80;99.90
27747;DHT22;15138;51.012;4.692;2022-12-11T02:54:20;2.90;99.90
27747;DHT22;15138;51.012;4.692;2022-12-11T02:56:49;2.80;99.90
27747;DHT22;15138;51.012;4.692;2022-12-11T02:59:19;2.80;99.90
27747;DHT22;15138;51.012;4.692;2022-12-11T03:01:49;2.80;99.90
27747;DHT22;15138;51.012;4.692;2022-12-11T03:04:17;3.00;99.90
27747;DHT22;15138;51.012;4.692;2022-12-11T03:06:51;2.70;99.90
27747;DHT22;15138;51.012;4.692;2022-12-11T03:09:19;2.80;99.90
27747;DHT22;15138;51.012;4.692;2022-12-11T03:11:47;2.80;99.90
27747;DHT22;15138;51.012;4.692;2022-12-11T03:14:15;2.80;99.90
27747;DHT22;15138;51.012;4.692;2022-12-11T03:16:45;2.80;99.90
27747;DHT22;15138;51.012;4.692;2022-12-11T03:19:18;2.80;99.90
27747;DHT22;15138;51.012;4.692;2022-12-11T03:21:47;2.80;99.90
27747;DHT22;15138;51.012;4.692;2022-12-11T03:24:19;2.80;99.90
27747;DHT22;15138;51.012;4.692;2022-12-11T03:26:49;2.90;99.90
27747;DHT22;15138;51.012;4.692;2022-12-11T03:29:23;2.80;99.90
27747;DHT22;15138;51.012;4.692;2022-12-11T03:31:53;2.80;99.90
27747;DHT22;15138;51.012;4.692;2022-12-11T03:34:24;2.70;99.90
27747;DHT22;15138;51.012;4.692;2022-12-11T03:36:54;2.80;99.90
27747;DHT22;15138;51.012;4.692;2022-12-11T03:39:23;2.80;99.90
27747;DHT22;15138;51.012;4.692;2022-12-11T03:41:52;3.30;99.90
27747;DHT22;15138;51.012;4.692;2022-12-11T03:44:21;2.80;99.90
27747;DHT22;15138;51.012;4.692;2022-12-11T03:46:50;2.80;99.90
27747;DHT22;15138;51.012;4.692;2022-12-11T03:49:21;2.80;99.90
27747;DHT22;15138;51.012;4.692;2022-12-11T03:51:51;2.80;99.90
27747;DHT22;15138;51.012;4.692;2022-12-11T03:54:20;2.90;99.90
27747;DHT22;15138;51.012;4.692;2022-12-11T03:56:50;2.90;99.90
27747;DHT22;15138;51.012;4.692;2022-12-11T03:59:20;2.80;99.90
27747;DHT22;15138;51.012;4.692;2022-12-11T04:01:48;2.80;99.90
27747;DHT22;15138;51.012;4.692;2022-12-11T04:04:16;2.80;99.90
27747;DHT22;15138;51.012;4.692;2022-12-11T04:06:44;2.70;99.90
27747;DHT22;15138;51.012;4.692;2022-12-11T04:09:13;2.70;99.90
27747;DHT22;15138;51.012;4.692;2022-12-11T04:11:41;2.70;99.90
27747;DHT22;15138;51.012;4.692;2022-12-11T04:14:09;2.70;99.90
27747;DHT22;15138;51.012;4.692;2022-12-11T04:16:56;2.60;99.90
27747;DHT22;15138;51.012;4.692;2022-12-11T04:19:24;2.90;99.90
27747;DHT22;15138;51.012;4.692;2022-12-11T04:22:10;2.50;99.90
27747;DHT22;15138;51.012;4.692;2022-12-11T04:24:56;2.60;99.90
27747;DHT22;15138;51.012;4.692;2022-12-11T04:27:24;2.60;99.90
27747;DHT22;15138;51.012;4.692;2022-12-11T04:30:10;2.60;99.90
27747;DHT22;15138;51.012;4.692;2022-12-11T04:32:39;2.60;99.90
27747;DHT22;15138;51.012;4.692;2022-12-11T04:35:07;2.60;99.90
27747;DHT22;15138;51.012;4.692;2022-12-11T04:37:36;2.50;99.90
27747;DHT22;15138;51.012;4.692;2022-12-11T04:40:07;2.60;99.90
27747;DHT22;15138;51.012;4.692;2022-12-11T04:42:35;2.60;99.90
27747;DHT22;15138;51.012;4.692;2022-12-11T04:45:03;2.60;99.90
27747;DHT22;15138;51.012;4.692;2022-12-11T04:47:31;2.60;99.90
27747;DHT22;15138;51.012;4.692;2022-12-11T04:49:59;2.70;99.90
27747;DHT22;15138;51.012;4.692;2022-12-11T04:52:27;2.70;99.90
27747;DHT22;15138;51.012;4.692;2022-12-11T04:54:55;2.80;99.90
27747;DHT22;15138;51.012;4.692;2022-12-11T04:57:24;2.60;99.90
27747;DHT22;15138;51.012;4.692;2022-12-11T04:59:52;2.70;99.90
27747;DHT22;15138;51.012;4.692;2022-12-11T05:02:20;2.60;99.90
27747;DHT22;15138;51.012;4.692;2022-12-11T05:04:48;2.70;99.90
27747;DHT22;15138;51.012;4.692;2022-12-11T05:07:16;2.60;99.90
27747;DHT22;15138;51.012;4.692;2022-12-11T05:09:43;2.70;99.90
27747;DHT22;15138;51.012;4.692;2022-12-11T05:12:11;2.70;99.90
27747;DHT22;15138;51.012;4.692;2022-12-11T05:14:41;2.70;99.90
27747;DHT22;15138;51.012;4.692;2022-12-11T05:17:08;2.70;99.90
27747;DHT22;15138;51.012;4.692;2022-12-11T05:19:36;2.70;99.90
27747;DHT22;15138;51.012;4.692;2022-12-11T05:22:04;2.70;99.90
27747;DHT22;15138;51.012;4.692;2022-12-11T05:24:32;2.80;99.90
27747;DHT22;15138;51.012;4.692;2022-12-11T05:27:00;2.80;99.90
27747;DHT22;15138;51.012;4.692;2022-12-11T05:29:28;2.70;99.90
27747;DHT22;15138;51.012;4.692;2022-12-11T05:31:57;2.80;99.90
27747;DHT22;15138;51.012;4.692;2022-12-11T05:34:25;2.30;99.90
27747;DHT22;15138;51.012;4.692;2022-12-11T05:36:53;2.60;99.90
27747;DHT22;15138;51.012;4.692;2022-12-11T05:39:21;2.60;99.90
27747;DHT22;15138;51.012;4.692;2022-12-11T05:41:48;2.60;99.90
27747;DHT22;15138;51.012;4.692;2022-12-11T05:44:16;2.50;99.90
27747;DHT22;15138;51.012;4.692;2022-12-11T05:46:44;2.50;99.90
27747;DHT22;15138;51.012;4.692;2022-12-11T05:49:13;2.50;99.90
27747;DHT22;15138;51.012;4.692;2022-12-11T05:51:45;2.50;99.90
27747;DHT22;15138;51.012;4.692;2022-12-11T05:54:13;2.50;99.90
27747;DHT22;15138;51.012;4.692;2022-12-11T05:56:41;2.50;99.90
27747;DHT22;15138;51.012;4.692;2022-12-11T05:59:09;2.50;99.90
27747;DHT22;15138;51.012;4.692;2022-12-11T06:01:37;2.50;99.90
27747;DHT22;15138;51.012;4.692;2022-12-11T06:04:06;2.50;99.90
27747;DHT22;15138;51.012;4.692;2022-12-11T06:06:36;2.40;99.90
27747;DHT22;15138;51.012;4.692;2022-12-11T06:09:06;2.40;99.90
27747;DHT22;15138;51.012;4.692;2022-12-11T06:11:34;2.30;99.90
27747;DHT22;15138;51.012;4.692;2022-12-11T06:14:02;2.30;99.90
27747;DHT22;15138;51.012;4.692;2022-12-11T06:16:30;2.30;99.90
27747;DHT22;15138;51.012;4.692;2022-12-11T06:18:58;2.30;99.90
27747;DHT22;15138;51.012;4.692;2022-12-11T06:21:27;2.30;99.90
27747;DHT22;15138;51.012;4.692;2022-12-11T06:23:57;2.30;99.90
27747;DHT22;15138;51.012;4.692;2022-12-11T06:26:26;2.30;99.90
27747;DHT22;15138;51.012;4.692;2022-12-11T06:28:54;2.20;99.90
27747;DHT22;15138;51.012;4.692;2022-12-11T06:31:22;2.20;99.90
27747;DHT22;15138;51.012;4.692;2022-12-11T06:33:50;2.10;99.90
27747;DHT22;15138;51.012;4.692;2022-12-11T06:36:18;2.10;99.90
27747;DHT22;15138;51.012;4.692;2022-12-11T06:38:46;2.10;99.90
27747;DHT22;15138;51.012;4.692;2022-12-11T06:41:15;2.00;99.90
27747;DHT22;15138;51.012;4.692;2022-12-11T06:43:43;2.00;99.90
27747;DHT22;15138;51.012;4.692;2022-12-11T06:46:12;2.20;99.90
27747;DHT22;15138;51.012;4.692;2022-12-11T06:48:41;2.30;99.90
27747;DHT22;15138;51.012;4.692;2022-12-11T06:51:10;1.90;99.90
27747;DHT22;15138;51.012;4.692;2022-12-11T06:53:38;2.00;99.90
27747;DHT22;15138;51.012;4.692;2022-12-11T06:56:07;2.00;99.90
27747;DHT22;15138;51.012;4.692;2022-12-11T06:58:36;2.00;99.90
27747;DHT22;15138;51.012;4.692;2022-12-11T07:01:11;2.00;99.90
27747;DHT22;15138;51.012;4.692;2022-12-11T07:03:40;2.00;99.90
27747;DHT22;15138;51.012;4.692;2022-12-11T07:06:07;2.00;99.90
27747;DHT22;15138;51.012;4.692;2022-12-11T07:08:35;2.00;99.90
27747;DHT22;15138;51.012;4.692;2022-12-11T07:11:04;2.00;99.90
27747;DHT22;15138;51.012;4.692;2022-12-11T07:13:32;2.00;99.90
27747;DHT22;15138;51.012;4.692;2022-12-11T07:16:01;2.00;99.90
27747;DHT22;15138;51.012;4.692;2022-12-11T07:18:31;1.90;99.90
27747;DHT22;15138;51.012;4.692;2022-12-11T07:20:59;1.90;99.90
27747;DHT22;15138;51.012;4.692;2022-12-11T07:23:27;2.00;99.90
27747;DHT22;15138;51.012;4.692;2022-12-11T07:25:55;1.90;99.90
27747;DHT22;15138;51.012;4.692;2022-12-11T07:28:23;2.00;99.90
27747;DHT22;15138;51.012;4.692;2022-12-11T07:30:51;2.00;99.90
27747;DHT22;15138;51.012;4.692;2022-12-11T07:33:20;2.00;99.90
27747;DHT22;15138;51.012;4.692;2022-12-11T07:35:48;2.00;99.90
27747;DHT22;15138;51.012;4.692;2022-12-11T07:38:16;2.00;99.90
27747;DHT22;15138;51.012;4.692;2022-12-11T07:40:44;2.00;99.90
27747;DHT22;15138;51.012;4.692;2022-12-11T07:43:12;2.00;99.90
27747;DHT22;15138;51.012;4.692;2022-12-11T07:45:40;2.30;99.90
27747;DHT22;15138;51.012;4.692;2022-12-11T07:48:08;2.20;99.90
27747;DHT22;15138;51.012;4.692;2022-12-11T07:50:37;2.10;99.90
27747;DHT22;15138;51.012;4.692;2022-12-11T07:53:05;2.30;99.90
27747;DHT22;15138;51.012;4.692;2022-12-11T07:55:33;2.30;99.90
27747;DHT22;15138;51.012;4.692;2022-12-11T07:58:01;2.40;99.90
27747;DHT22;15138;51.012;4.692;2022-12-11T08:00:29;2.40;99.90
27747;DHT22;15138;51.012;4.692;2022-12-11T08:02:57;2.40;99.90
27747;DHT22;15138;51.012;4.692;2022-12-11T08:05:25;2.30;99.90
27747;DHT22;15138;51.012;4.692;2022-12-11T08:07:54;2.30;99.90
27747;DHT22;15138;51.012;4.692;2022-12-11T08:10:22;2.20;99.90
27747;DHT22;15138;51.012;4.692;2022-12-11T08:12:50;2.50;99.90
27747;DHT22;15138;51.012;4.692;2022-12-11T08:15:18;2.20;99.90
27747;DHT22;15138;51.012;4.692;2022-12-11T08:17:46;2.20;99.90
27747;DHT22;15138;51.012;4.692;2022-12-11T08:20:14;2.20;99.90
27747;DHT22;15138;51.012;4.692;2022-12-11T08:22:41;2.20;99.90
27747;DHT22;15138;51.012;4.692;2022-12-11T08:25:11;3.20;99.90
27747;DHT22;15138;51.012;4.692;2022-12-11T08:27:39;2.20;99.90
27747;DHT22;15138;51.012;4.692;2022-12-11T08:30:07;2.70;99.90
27747;DHT22;15138;51.012;4.692;2022-12-11T08:32:35;2.50;99.90
27747;DHT22;15138;51.012;4.692;2022-12-11T08:35:03;2.40;99.90
27747;DHT22;15138;51.012;4.692;2022-12-11T08:37:32;2.40;99.90
27747;DHT22;15138;51.012;4.692;2022-12-11T08:40:00;2.50;99.90
27747;DHT22;15138;51.012;4.692;2022-12-11T08:42:29;2.50;99.90
27747;DHT22;15138;51.012;4.692;2022-12-11T08:44:57;2.50;99.90
27747;DHT22;15138;51.012;4.692;2022-12-11T08:47:25;2.50;99.90
27747;DHT22;15138;51.012;4.692;2022-12-11T08:49:53;2.50;99.90
27747;DHT22;15138;51.012;4.692;2022-12-11T08:52:22;2.40;99.90
27747;DHT22;15138;51.012;4.692;2022-12-11T08:54:50;2.50;99.90
27747;DHT22;15138;51.012;4.692;2022-12-11T08:57:18;2.70;99.90
27747;DHT22;15138;51.012;4.692;2022-12-11T08:59:47;2.50;99.90
27747;DHT22;15138;51.012;4.692;2022-12-11T09:02:15;2.40;99.90
27747;DHT22;15138;51.012;4.692;2022-12-11T09:04:43;2.50;99.90
27747;DHT22;15138;51.012;4.692;2022-12-11T09:07:10;2.50;99.90
27747;DHT22;15138;51.012;4.692;2022-12-11T09:09:38;2.40;99.90
27747;DHT22;15138;51.012;4.692;2022-12-11T09:12:06;2.50;99.90
27747;DHT22;15138;51.012;4.692;2022-12-11T09:14:34;2.50;99.90
27747;DHT22;15138;51.012;4.692;2022-12-11T09:17:06;2.40;99.90
27747;DHT22;15138;51.012;4.692;2022-12-11T09:19:34;2.40;99.90
27747;DHT22;15138;51.012;4.692;2022-12-11T09:22:02;2.40;99.90
27747;DHT22;15138;51.012;4.692;2022-12-11T09:24:30;2.50;99.90
27747;DHT22;15138;51.012;4.692;2022-12-11T09:26:58;2.50;99.90
27747;DHT22;15138;51.012;4.692;2022-12-11T09:29:26;2.50;99.90
27747;DHT22;15138;51.012;4.692;2022-12-11T09:31:54;2.50;99.90
27747;DHT22;15138;51.012;4.692;2022-12-11T09:34:23;2.50;99.90
27747;DHT22;15138;51.012;4.692;2022-12-11T09:36:55;2.50;99.90
27747;DHT22;15138;51.012;4.692;2022-12-11T09:39:23;2.60;99.90
27747;DHT22;15138;51.012;4.692;2022-12-11T09:41:52;2.50;99.90
27747;DHT22;15138;51.012;4.692;2022-12-11T09:44:23;2.50;99.90
27747;DHT22;15138;51.012;4.692;2022-12-11T09:46:57;2.40;99.90
27747;DHT22;15138;51.012;4.692;2022-12-11T09:49:27;2.60;99.90
27747;DHT22;15138;51.012;4.692;2022-12-11T09:51:59;2.40;99.90
27747;DHT22;15138;51.012;4.692;2022-12-11T09:54:30;2.40;99.90
27747;DHT22;15138;51.012;4.692;2022-12-11T09:57:01;2.40;99.90
27747;DHT22;15138;51.012;4.692;2022-12-11T09:59:33;2.50;99.90
27747;DHT22;15138;51.012;4.692;2022-12-11T10:02:16;2.60;99.90
27747;DHT22;15138;51.012;4.692;2022-12-11T10:04:51;2.50;91.10
27747;DHT22;15138;51.012;4.692;2022-12-11T10:07:25;2.50;99.90
27747;DHT22;15138;51.012;4.692;2022-12-11T10:09:57;2.60;99.90
27747;DHT22;15138;51.012;4.692;2022-12-11T10:12:30;2.70;99.90
27747;DHT22;15138;51.012;4.692;2022-12-11T10:15:10;2.50;86.00
27747;DHT22;15138;51.012;4.692;2022-12-11T10:17:39;2.50;99.90
27747;DHT22;15138;51.012;4.692;2022-12-11T10:20:16;2.60;99.90
27747;DHT22;15138;51.012;4.692;2022-12-11T10:22:46;2.70;99.90
27747;DHT22;15138;51.012;4.692;2022-12-11T10:25:17;2.90;99.90
27747;DHT22;15138;51.012;4.692;2022-12-11T10:27:46;2.80;91.30
27747;DHT22;15138;51.012;4.692;2022-12-11T10:30:15;2.90;97.90
27747;DHT22;15138;51.012;4.692;2022-12-11T10:32:53;2.80;59.00
27747;DHT22;15138;51.012;4.692;2022-12-11T10:35:28;2.90;61.90
27747;DHT22;15138;51.012;4.692;2022-12-11T10:37:58;2.90;56.20
27747;DHT22;15138;51.012;4.692;2022-12-11T10:40:28;3.00;84.50
27747;DHT22;15138;51.012;4.692;2022-12-11T10:42:57;3.00;54.70
27747;DHT22;15138;51.012;4.692;2022-12-11T10:45:25;3.00;37.90
27747;DHT22;15138;51.012;4.692;2022-12-11T10:48:01;3.00;5.60
27747;DHT22;15138;51.012;4.692;2022-12-11T10:50:30;3.00;14.60
27747;DHT22;15138;51.012;4.692;2022-12-11T10:52:58;3.20;22.50
27747;DHT22;15138;51.012;4.692;2022-12-11T10:55:27;3.10;17.80
27747;DHT22;15138;51.012;4.692;2022-12-11T10:57:56;3.10;14.10
27747;DHT22;15138;51.012;4.692;2022-12-11T11:00:28;3.00;1.00
27747;DHT22;15138;51.012;4.692;2022-12-11T11:02:56;3.00;1.00
27747;DHT22;15138;51.012;4.692;2022-12-11T11:05:28;2.80;1.00
27747;DHT22;15138;51.012;4.692;2022-12-11T11:08:07;2.90;1.00
27747;DHT22;15138;51.012;4.692;2022-12-11T11:10:37;2.90;1.00
27747;DHT22;15138;51.012;4.692;2022-12-11T11:13:15;2.90;1.00
27747;DHT22;15138;51.012;4.692;2022-12-11T11:15:43;2.90;1.00
27747;DHT22;15138;51.012;4.692;2022-12-11T11:18:14;2.80;1.00
27747;DHT22;15138;51.012;4.692;2022-12-11T11:20:45;2.80;1.00
27747;DHT22;15138;51.012;4.692;2022-12-11T11:23:15;2.90;1.00
27747;DHT22;15138;51.012;4.692;2022-12-11T11:25:48;2.90;1.00
27747;DHT22;15138;51.012;4.692;2022-12-11T11:28:17;2.80;1.00
27747;DHT22;15138;51.012;4.692;2022-12-11T11:30:53;2.80;1.00
27747;DHT22;15138;51.012;4.692;2022-12-11T11:33:23;3.00;1.00
27747;DHT22;15138;51.012;4.692;2022-12-11T11:35:52;3.00;1.00
27747;DHT22;15138;51.012;4.692;2022-12-11T11:38:21;2.90;1.00
27747;DHT22;15138;51.012;4.692;2022-12-11T11:40:53;2.90;1.00
27747;DHT22;15138;51.012;4.692;2022-12-11T11:43:32;3.00;1.00
27747;DHT22;15138;51.012;4.692;2022-12-11T11:46:02;3.10;1.00
27747;DHT22;15138;51.012;4.692;2022-12-11T11:48:34;3.20;1.00
27747;DHT22;15138;51.012;4.692;2022-12-11T11:51:05;3.20;1.00
27747;DHT22;15138;51.012;4.692;2022-12-11T11:53:36;3.30;1.00
27747;DHT22;15138;51.012;4.692;2022-12-11T11:56:13;3.60;1.00
27747;DHT22;15138;51.012;4.692;2022-12-11T11:58:44;3.90;1.00
27747;DHT22;15138;51.012;4.692;2022-12-11T12:01:14;4.50;1.00
27747;DHT22;15138;51.012;4.692;2022-12-11T12:03:42;5.40;82.10
27747;DHT22;15138;51.012;4.692;2022-12-11T12:06:15;5.50;1.00
27747;DHT22;15138;51.012;4.692;2022-12-11T12:08:48;6.00;5.80
27747;DHT22;15138;51.012;4.692;2022-12-11T12:11:21;6.20;1.00
27747;DHT22;15138;51.012;4.692;2022-12-11T12:13:54;6.30;99.90
27747;DHT22;15138;51.012;4.692;2022-12-11T12:16:31;6.30;99.90
27747;DHT22;15138;51.012;4.692;2022-12-11T12:19:22;5.90;1.00
27747;DHT22;15138;51.012;4.692;2022-12-11T12:21:53;6.10;99.90
27747;DHT22;15138;51.012;4.692;2022-12-11T12:24:26;6.50;99.90
27747;DHT22;15138;51.012;4.692;2022-12-11T12:26:57;6.80;99.90
27747;DHT22;15138;51.012;4.692;2022-12-11T12:29:40;6.70;1.00
27747;DHT22;15138;51.012;4.692;2022-12-11T12:32:13;7.30;99.90
27747;DHT22;15138;51.012;4.692;2022-12-11T12:34:48;7.90;99.90
27747;DHT22;15138;51.012;4.692;2022-12-11T12:37:20;8.20;1.00
27747;DHT22;15138;51.012;4.692;2022-12-11T12:39:54;8.40;1.00
27747;DHT22;15138;51.012;4.692;2022-12-11T12:42:25;8.70;99.90
27747;DHT22;15138;51.012;4.692;2022-12-11T12:44:56;9.50;1.00
27747;DHT22;15138;51.012;4.692;2022-12-11T12:47:25;9.60;1.00
27747;DHT22;15138;51.012;4.692;2022-12-11T12:49:53;9.90;1.00
27747;DHT22;15138;51.012;4.692;2022-12-11T12:52:24;9.00;1.00
27747;DHT22;15138;51.012;4.692;2022-12-11T12:54:54;9.10;99.90
27747;DHT22;15138;51.012;4.692;2022-12-11T12:57:44;8.70;99.90
27747;DHT22;15138;51.012;4.692;2022-12-11T13:00:24;7.80;99.90
27747;DHT22;15138;51.012;4.692;2022-12-11T13:02:52;7.60;1.00
27747;DHT22;15138;51.012;4.692;2022-12-11T13:05:22;7.70;1.00
27747;DHT22;15138;51.012;4.692;2022-12-11T13:07:51;7.70;1.00
27747;DHT22;15138;51.012;4.692;2022-12-11T13:10:26;7.70;1.00
27747;DHT22;15138;51.012;4.692;2022-12-11T13:12:54;7.60;99.90
27747;DHT22;15138;51.012;4.692;2022-12-11T13:15:33;6.90;99.90
27747;DHT22;15138;51.012;4.692;2022-12-11T13:18:02;6.60;1.00
27747;DHT22;15138;51.012;4.692;2022-12-11T13:20:30;6.50;1.00
27747;DHT22;15138;51.012;4.692;2022-12-11T13:23:13;6.50;6.20
27747;DHT22;15138;51.012;4.692;2022-12-11T13:25:51;6.50;22.70
27747;DHT22;15138;51.012;4.692;2022-12-11T13:28:30;6.60;99.90
27747;DHT22;15138;51.012;4.692;2022-12-11T13:30:59;6.40;15.00
27747;DHT22;15138;51.012;4.692;2022-12-11T13:33:27;6.20;52.20
27747;DHT22;15138;51.012;4.692;2022-12-11T13:36:15;6.00;99.90
27747;DHT22;15138;51.012;4.692;2022-12-11T13:38:51;6.00;99.90
27747;DHT22;15138;51.012;4.692;2022-12-11T13:41:21;5.90;90.50
27747;DHT22;15138;51.012;4.692;2022-12-11T13:43:49;5.60;67.70
27747;DHT22;15138;51.012;4.692;2022-12-11T13:46:18;5.70;99.90
27747;DHT22;15138;51.012;4.692;2022-12-11T13:48:47;5.60;99.90
27747;DHT22;15138;51.012;4.692;2022-12-11T13:51:18;5.60;1.00
27747;DHT22;15138;51.012;4.692;2022-12-11T13:53:46;5.40;1.00
27747;DHT22;15138;51.012;4.692;2022-12-11T13:56:14;5.40;99.90
27747;DHT22;15138;51.012;4.692;2022-12-11T13:58:44;5.30;99.90
27747;DHT22;15138;51.012;4.692;2022-12-11T14:01:12;5.30;99.90
27747;DHT22;15138;51.012;4.692;2022-12-11T14:03:42;5.10;99.90
27747;DHT22;15138;51.012;4.692;2022-12-11T14:06:14;5.10;7.80
27747;DHT22;15138;51.012;4.692;2022-12-11T14:08:44;5.10;99.90
27747;DHT22;15138;51.012;4.692;2022-12-11T14:11:16;5.00;1.00
27747;DHT22;15138;51.012;4.692;2022-12-11T14:13:46;5.00;99.90
27747;DHT22;15138;51.012;4.692;2022-12-11T14:16:17;5.00;99.90
27747;DHT22;15138;51.012;4.692;2022-12-11T14:18:46;5.00;1.00
27747;DHT22;15138;51.012;4.692;2022-12-11T14:21:18;4.90;1.00
27747;DHT22;15138;51.012;4.692;2022-12-11T14:23:50;4.80;9.30
27747;DHT22;15138;51.012;4.692;2022-12-11T14:26:18;4.70;1.00
27747;DHT22;15138;51.012;4.692;2022-12-11T14:28:48;4.80;1.00
27747;DHT22;15138;51.012;4.692;2022-12-11T14:31:17;4.70;99.90
27747;DHT22;15138;51.012;4.692;2022-12-11T14:33:46;4.60;1.00
27747;DHT22;15138;51.012;4.692;2022-12-11T14:36:15;4.50;99.90
27747;DHT22;15138;51.012;4.692;2022-12-11T14:38:44;4.40;1.00
27747;DHT22;15138;51.012;4.692;2022-12-11T14:41:15;4.40;1.00
27747;DHT22;15138;51.012;4.692;2022-12-11T14:43:44;4.30;99.90
27747;DHT22;15138;51.012;4.692;2022-12-11T14:46:17;4.30;72.10
27747;DHT22;15138;51.012;4.692;2022-12-11T14:48:45;4.10;1.00
27747;DHT22;15138;51.012;4.692;2022-12-11T14:51:15;4.10;99.90
27747;DHT22;15138;51.012;4.692;2022-12-11T14:53:45;4.00;1.00
27747;DHT22;15138;51.012;4.692;2022-12-11T14:56:15;4.10;59.30
27747;DHT22;15138;51.012;4.692;2022-12-11T14:58:53;4.10;1.00
27747;DHT22;15138;51.012;4.692;2022-12-11T15:01:24;4.10;1.00
27747;DHT22;15138;51.012;4.692;2022-12-11T15:04:00;4.00;52.30
27747;DHT22;15138;51.012;4.692;2022-12-11T15:06:30;3.90;99.90
27747;DHT22;15138;51.012;4.692;2022-12-11T15:09:08;3.80;1.00
27747;DHT22;15138;51.012;4.692;2022-12-11T15:11:36;3.70;1.00
27747;DHT22;15138;51.012;4.692;2022-12-11T15:14:03;3.70;1.00
27747;DHT22;15138;51.012;4.692;2022-12-11T15:16:36;3.70;1.00
27747;DHT22;15138;51.012;4.692;2022-12-11T15:19:04;3.60;1.00
27747;DHT22;15138;51.012;4.692;2022-12-11T15:21:33;3.70;1.00
27747;DHT22;15138;51.012;4.692;2022-12-11T15:24:03;3.80;99.90
27747;DHT22;15138;51.012;4.692;2022-12-11T15:26:32;3.90;99.90
27747;DHT22;15138;51.012;4.692;2022-12-11T15:29:00;3.90;1.00
27747;DHT22;15138;51.012;4.692;2022-12-11T15:31:29;3.90;1.00
27747;DHT22;15138;51.012;4.692;2022-12-11T15:33:58;3.90;1.00
27747;DHT22;15138;51.012;4.692;2022-12-11T15:36:30;3.90;1.00
27747;DHT22;15138;51.012;4.692;2022-12-11T15:38:58;3.90;1.00
27747;DHT22;15138;51.012;4.692;2022-12-11T15:41:26;3.90;1.00
27747;DHT22;15138;51.012;4.692;2022-12-11T15:43:59;3.90;1.00
27747;DHT22;15138;51.012;4.692;2022-12-11T15:46:28;3.90;1.00
27747;DHT22;15138;51.012;4.692;2022-12-11T15:48:56;3.90;1.00
27747;DHT22;15138;51.012;4.692;2022-12-11T15:51:25;3.90;1.00
27747;DHT22;15138;51.012;4.692;2022-12-11T15:53:53;3.80;1.00
27747;DHT22;15138;51.012;4.692;2022-12-11T15:56:21;3.80;1.00
27747;DHT22;15138;51.012;4.692;2022-12-11T15:58:49;3.80;1.00
27747;DHT22;15138;51.012;4.692;2022-12-11T16:01:17;3.80;1.00
27747;DHT22;15138;51.012;4.692;2022-12-11T16:03:45;3.80;1.00
27747;DHT22;15138;51.012;4.692;2022-12-11T16:06:13;3.80;1.00
27747;DHT22;15138;51.012;4.692;2022-12-11T16:08:42;3.80;1.00